sensor_id;sensor_type;location;lat;lon;timestamp;P1;durP1;ratioP1;P2;durP2;ratioP2
55455;SDS011;63021;52.836;6.376;2022-10-22T00:00:21;7.38;;;6.43;;
55455;SDS011;63021;52.836;6.376;2022-10-22T00:02:47;11.45;;;6.32;;
55455;SDS011;63021;52.836;6.376;2022-10-22T00:05:13;10.88;;;6.57;;
55455;SDS011;63021;52.836;6.376;2022-10-22T00:07:38;9.65;;;7.43;;
55455;SDS011;63021;52.836;6.376;2022-10-22T00:10:05;9.88;;;5.63;;
55455;SDS011;63021;52.836;6.376;2022-10-22T00:12:31;10.45;;;6.75;;
55455;SDS011;63021;52.836;6.376;2022-10-22T00:14:57;8.55;;;6.57;;
55455;SDS011;63021;52.836;6.376;2022-10-22T00:17:22;11.48;;;6.15;;
55455;SDS011;63021;52.836;6.376;2022-10-22T00:19:47;11.35;;;6.05;;
55455;SDS011;63021;52.836;6.376;2022-10-22T00:22:13;6.88;;;5.53;;
55455;SDS011;63021;52.836;6.376;2022-10-22T00:24:38;9.68;;;5.35;;
55455;SDS011;63021;52.836;6.376;2022-10-22T00:27:04;9.52;;;5.13;;
55455;SDS011;63021;52.836;6.376;2022-10-22T00:29:31;8.05;;;5.20;;
55455;SDS011;63021;52.836;6.376;2022-10-22T00:31:57;8.40;;;5.93;;
55455;SDS011;63021;52.836;6.376;2022-10-22T00:34:22;8.38;;;5.72;;
55455;SDS011;63021;52.836;6.376;2022-10-22T00:36:48;7.50;;;6.03;;
55455;SDS011;63021;52.836;6.376;2022-10-22T00:39:15;14.75;;;6.68;;
55455;SDS011;63021;52.836;6.376;2022-10-22T00:41:42;8.98;;;5.88;;
55455;SDS011;63021;52.836;6.376;2022-10-22T00:47:11;8.88;;;6.43;;
55455;SDS011;63021;52.836;6.376;2022-10-22T00:49:37;10.50;;;6.60;;
55455;SDS011;63021;52.836;6.376;2022-10-22T00:52:03;7.78;;;5.65;;
55455;SDS011;63021;52.836;6.376;2022-10-22T00:54:29;11.38;;;6.90;;
55455;SDS011;63021;52.836;6.376;2022-10-22T00:56:54;10.63;;;6.47;;
55455;SDS011;63021;52.836;6.376;2022-10-22T00:59:20;8.23;;;5.85;;
55455;SDS011;63021;52.836;6.376;2022-10-22T01:01:46;13.45;;;6.93;;
55455;SDS011;63021;52.836;6.376;2022-10-22T01:04:11;7.70;;;6.22;;
55455;SDS011;63021;52.836;6.376;2022-10-22T01:06:37;10.05;;;5.90;;
55455;SDS011;63021;52.836;6.376;2022-10-22T01:09:09;12.48;;;6.97;;
55455;SDS011;63021;52.836;6.376;2022-10-22T01:11:53;10.43;;;7.30;;
55455;SDS011;63021;52.836;6.376;2022-10-22T01:22:39;7.07;;;6.30;;
55455;SDS011;63021;52.836;6.376;2022-10-22T01:25:23;15.07;;;6.35;;
55455;SDS011;63021;52.836;6.376;2022-10-22T01:30:34;9.02;;;7.00;;
55455;SDS011;63021;52.836;6.376;2022-10-22T01:33:02;9.98;;;6.07;;
55455;SDS011;63021;52.836;6.376;2022-10-22T01:35:34;10.98;;;6.80;;
55455;SDS011;63021;52.836;6.376;2022-10-22T01:38:04;7.30;;;6.10;;
55455;SDS011;63021;52.836;6.376;2022-10-22T01:40:34;9.23;;;6.85;;
55455;SDS011;63021;52.836;6.376;2022-10-22T01:43:01;10.25;;;6.68;;
55455;SDS011;63021;52.836;6.376;2022-10-22T01:45:29;10.05;;;7.00;;
55455;SDS011;63021;52.836;6.376;2022-10-22T01:59:05;12.15;;;7.97;;
55455;SDS011;63021;52.836;6.376;2022-10-22T02:04:27;16.45;;;7.50;;
55455;SDS011;63021;52.836;6.376;2022-10-22T02:06:58;11.35;;;7.20;;
55455;SDS011;63021;52.836;6.376;2022-10-22T02:09:27;10.98;;;6.95;;
55455;SDS011;63021;52.836;6.376;2022-10-22T02:11:54;10.73;;;7.82;;
55455;SDS011;63021;52.836;6.376;2022-10-22T02:14:22;11.52;;;7.80;;
55455;SDS011;63021;52.836;6.376;2022-10-22T02:16:52;10.75;;;6.95;;
55455;SDS011;63021;52.836;6.376;2022-10-22T02:21:54;12.07;;;7.35;;
55455;SDS011;63021;52.836;6.376;2022-10-22T02:24:20;15.43;;;7.30;;
55455;SDS011;63021;52.836;6.376;2022-10-22T02:26:56;11.40;;;7.57;;
55455;SDS011;63021;52.836;6.376;2022-10-22T02:29:26;12.68;;;7.85;;
55455;SDS011;63021;52.836;6.376;2022-10-22T02:31:58;7.80;;;6.28;;
55455;SDS011;63021;52.836;6.376;2022-10-22T02:34:27;11.32;;;7.43;;
55455;SDS011;63021;52.836;6.376;2022-10-22T02:36:55;11.63;;;7.72;;
55455;SDS011;63021;52.836;6.376;2022-10-22T02:39:22;11.52;;;7.75;;
55455;SDS011;63021;52.836;6.376;2022-10-22T02:41:48;19.85;;;7.90;;
55455;SDS011;63021;52.836;6.376;2022-10-22T02:44:14;9.73;;;6.43;;
55455;SDS011;63021;52.836;6.376;2022-10-22T02:46:39;14.65;;;7.70;;
55455;SDS011;63021;52.836;6.376;2022-10-22T02:49:07;16.88;;;7.97;;
55455;SDS011;63021;52.836;6.376;2022-10-22T02:51:33;19.52;;;8.02;;
55455;SDS011;63021;52.836;6.376;2022-10-22T02:53:59;14.70;;;7.40;;
55455;SDS011;63021;52.836;6.376;2022-10-22T02:56:24;12.57;;;7.45;;
55455;SDS011;63021;52.836;6.376;2022-10-22T02:58:50;11.02;;;7.22;;
55455;SDS011;63021;52.836;6.376;2022-10-22T03:01:15;13.05;;;8.05;;
55455;SDS011;63021;52.836;6.376;2022-10-22T03:03:40;11.05;;;8.50;;
55455;SDS011;63021;52.836;6.376;2022-10-22T03:06:06;9.32;;;7.45;;
55455;SDS011;63021;52.836;6.376;2022-10-22T03:08:31;12.27;;;7.38;;
55455;SDS011;63021;52.836;6.376;2022-10-22T03:10:57;8.43;;;7.10;;
55455;SDS011;63021;52.836;6.376;2022-10-22T03:13:22;10.40;;;7.50;;
55455;SDS011;63021;52.836;6.376;2022-10-22T03:15:48;10.88;;;7.35;;
55455;SDS011;63021;52.836;6.376;2022-10-22T03:18:14;11.07;;;7.20;;
55455;SDS011;63021;52.836;6.376;2022-10-22T03:20:39;13.75;;;8.18;;
55455;SDS011;63021;52.836;6.376;2022-10-22T03:23:05;13.18;;;7.03;;
55455;SDS011;63021;52.836;6.376;2022-10-22T03:25:30;13.05;;;7.28;;
55455;SDS011;63021;52.836;6.376;2022-10-22T03:27:59;12.02;;;6.72;;
55455;SDS011;63021;52.836;6.376;2022-10-22T03:30:28;9.43;;;7.72;;
55455;SDS011;63021;52.836;6.376;2022-10-22T03:32:53;15.15;;;8.48;;
55455;SDS011;63021;52.836;6.376;2022-10-22T03:35:18;15.32;;;7.70;;
55455;SDS011;63021;52.836;6.376;2022-10-22T03:37:44;10.45;;;8.00;;
55455;SDS011;63021;52.836;6.376;2022-10-22T03:40:10;12.20;;;7.80;;
55455;SDS011;63021;52.836;6.376;2022-10-22T03:42:36;12.60;;;7.97;;
55455;SDS011;63021;52.836;6.376;2022-10-22T03:45:03;9.82;;;7.78;;
55455;SDS011;63021;52.836;6.376;2022-10-22T03:47:29;9.00;;;7.32;;
55455;SDS011;63021;52.836;6.376;2022-10-22T03:49:54;11.68;;;8.38;;
55455;SDS011;63021;52.836;6.376;2022-10-22T03:52:20;9.95;;;8.40;;
55455;SDS011;63021;52.836;6.376;2022-10-22T03:54:45;11.60;;;8.13;;
55455;SDS011;63021;52.836;6.376;2022-10-22T03:57:10;12.88;;;8.48;;
55455;SDS011;63021;52.836;6.376;2022-10-22T03:59:37;12.85;;;8.55;;
55455;SDS011;63021;52.836;6.376;2022-10-22T04:02:04;11.10;;;7.75;;
55455;SDS011;63021;52.836;6.376;2022-10-22T04:04:30;14.55;;;8.00;;
55455;SDS011;63021;52.836;6.376;2022-10-22T04:06:55;14.80;;;7.68;;
55455;SDS011;63021;52.836;6.376;2022-10-22T04:09:21;13.88;;;8.65;;
55455;SDS011;63021;52.836;6.376;2022-10-22T04:11:46;13.77;;;8.40;;
55455;SDS011;63021;52.836;6.376;2022-10-22T04:14:12;13.23;;;8.68;;
55455;SDS011;63021;52.836;6.376;2022-10-22T04:16:38;13.95;;;8.90;;
55455;SDS011;63021;52.836;6.376;2022-10-22T04:19:04;12.00;;;8.57;;
55455;SDS011;63021;52.836;6.376;2022-10-22T04:21:30;11.25;;;9.02;;
55455;SDS011;63021;52.836;6.376;2022-10-22T04:23:56;15.25;;;8.90;;
55455;SDS011;63021;52.836;6.376;2022-10-22T04:26:21;14.50;;;8.80;;
55455;SDS011;63021;52.836;6.376;2022-10-22T04:28:47;19.98;;;8.90;;
55455;SDS011;63021;52.836;6.376;2022-10-22T04:31:15;11.63;;;9.07;;
55455;SDS011;63021;52.836;6.376;2022-10-22T04:33:46;11.32;;;8.95;;
55455;SDS011;63021;52.836;6.376;2022-10-22T04:36:15;13.48;;;8.63;;
55455;SDS011;63021;52.836;6.376;2022-10-22T04:38:43;14.25;;;8.95;;
55455;SDS011;63021;52.836;6.376;2022-10-22T04:41:14;15.68;;;9.52;;
55455;SDS011;63021;52.836;6.376;2022-10-22T04:43:41;11.45;;;9.13;;
55455;SDS011;63021;52.836;6.376;2022-10-22T04:46:07;11.23;;;8.77;;
55455;SDS011;63021;52.836;6.376;2022-10-22T04:48:37;13.32;;;8.80;;
55455;SDS011;63021;52.836;6.376;2022-10-22T04:51:04;14.68;;;9.48;;
55455;SDS011;63021;52.836;6.376;2022-10-22T04:53:31;12.90;;;8.38;;
55455;SDS011;63021;52.836;6.376;2022-10-22T04:56:10;16.08;;;8.80;;
55455;SDS011;63021;52.836;6.376;2022-10-22T04:58:46;13.43;;;8.60;;
55455;SDS011;63021;52.836;6.376;2022-10-22T05:01:17;16.42;;;8.95;;
55455;SDS011;63021;52.836;6.376;2022-10-22T05:03:48;15.00;;;9.25;;
55455;SDS011;63021;52.836;6.376;2022-10-22T05:06:15;15.13;;;9.23;;
55455;SDS011;63021;52.836;6.376;2022-10-22T05:08:41;18.58;;;8.93;;
55455;SDS011;63021;52.836;6.376;2022-10-22T05:11:11;19.00;;;9.65;;
55455;SDS011;63021;52.836;6.376;2022-10-22T05:13:37;12.18;;;8.63;;
55455;SDS011;63021;52.836;6.376;2022-10-22T05:16:02;11.85;;;8.52;;
55455;SDS011;63021;52.836;6.376;2022-10-22T05:18:28;16.08;;;9.00;;
55455;SDS011;63021;52.836;6.376;2022-10-22T05:20:53;17.15;;;8.93;;
55455;SDS011;63021;52.836;6.376;2022-10-22T05:23:19;11.20;;;8.15;;
55455;SDS011;63021;52.836;6.376;2022-10-22T05:25:44;13.95;;;8.68;;
55455;SDS011;63021;52.836;6.376;2022-10-22T05:28:09;14.13;;;8.52;;
55455;SDS011;63021;52.836;6.376;2022-10-22T05:30:35;19.55;;;9.50;;
55455;SDS011;63021;52.836;6.376;2022-10-22T05:33:00;14.57;;;9.05;;
55455;SDS011;63021;52.836;6.376;2022-10-22T05:35:25;15.73;;;8.73;;
55455;SDS011;63021;52.836;6.376;2022-10-22T05:37:51;9.82;;;8.35;;
55455;SDS011;63021;52.836;6.376;2022-10-22T05:40:16;15.50;;;9.23;;
55455;SDS011;63021;52.836;6.376;2022-10-22T05:42:42;19.92;;;9.38;;
55455;SDS011;63021;52.836;6.376;2022-10-22T05:45:07;13.60;;;8.60;;
55455;SDS011;63021;52.836;6.376;2022-10-22T05:47:33;11.88;;;8.95;;
55455;SDS011;63021;52.836;6.376;2022-10-22T05:49:58;11.57;;;7.60;;
55455;SDS011;63021;52.836;6.376;2022-10-22T05:52:24;19.15;;;8.75;;
55455;SDS011;63021;52.836;6.376;2022-10-22T05:54:49;11.48;;;9.10;;
55455;SDS011;63021;52.836;6.376;2022-10-22T05:57:15;12.70;;;8.15;;
55455;SDS011;63021;52.836;6.376;2022-10-22T05:59:40;14.55;;;8.02;;
55455;SDS011;63021;52.836;6.376;2022-10-22T06:02:07;15.65;;;8.70;;
55455;SDS011;63021;52.836;6.376;2022-10-22T06:04:33;12.52;;;8.30;;
55455;SDS011;63021;52.836;6.376;2022-10-22T06:06:59;13.82;;;8.05;;
55455;SDS011;63021;52.836;6.376;2022-10-22T06:09:29;10.30;;;8.02;;
55455;SDS011;63021;52.836;6.376;2022-10-22T06:11:58;15.07;;;8.25;;
55455;SDS011;63021;52.836;6.376;2022-10-22T06:14:24;12.45;;;7.63;;
55455;SDS011;63021;52.836;6.376;2022-10-22T06:16:50;10.95;;;8.40;;
55455;SDS011;63021;52.836;6.376;2022-10-22T06:19:16;11.85;;;7.32;;
55455;SDS011;63021;52.836;6.376;2022-10-22T06:21:43;16.58;;;9.30;;
55455;SDS011;63021;52.836;6.376;2022-10-22T06:24:09;14.70;;;7.80;;
55455;SDS011;63021;52.836;6.376;2022-10-22T06:26:35;18.08;;;8.00;;
55455;SDS011;63021;52.836;6.376;2022-10-22T06:29:01;19.60;;;9.52;;
55455;SDS011;63021;52.836;6.376;2022-10-22T06:31:26;16.15;;;10.48;;
55455;SDS011;63021;52.836;6.376;2022-10-22T06:33:52;14.95;;;9.25;;
55455;SDS011;63021;52.836;6.376;2022-10-22T06:36:20;14.65;;;10.25;;
55455;SDS011;63021;52.836;6.376;2022-10-22T06:38:49;15.18;;;9.18;;
55455;SDS011;63021;52.836;6.376;2022-10-22T06:41:16;19.67;;;8.70;;
55455;SDS011;63021;52.836;6.376;2022-10-22T06:43:43;17.70;;;9.18;;
55455;SDS011;63021;52.836;6.376;2022-10-22T06:46:10;13.65;;;7.68;;
55455;SDS011;63021;52.836;6.376;2022-10-22T06:48:38;18.63;;;10.30;;
55455;SDS011;63021;52.836;6.376;2022-10-22T06:51:05;14.80;;;7.70;;
55455;SDS011;63021;52.836;6.376;2022-10-22T06:53:32;15.00;;;7.85;;
55455;SDS011;63021;52.836;6.376;2022-10-22T06:55:58;15.25;;;8.25;;
55455;SDS011;63021;52.836;6.376;2022-10-22T06:58:23;16.92;;;7.53;;
55455;SDS011;63021;52.836;6.376;2022-10-22T07:00:49;15.00;;;7.50;;
55455;SDS011;63021;52.836;6.376;2022-10-22T07:03:24;17.67;;;8.77;;
55455;SDS011;63021;52.836;6.376;2022-10-22T07:05:50;14.80;;;7.72;;
55455;SDS011;63021;52.836;6.376;2022-10-22T07:08:16;10.88;;;7.93;;
55455;SDS011;63021;52.836;6.376;2022-10-22T07:10:41;15.15;;;7.82;;
55455;SDS011;63021;52.836;6.376;2022-10-22T07:13:07;14.90;;;7.53;;
55455;SDS011;63021;52.836;6.376;2022-10-22T07:15:32;13.50;;;7.22;;
55455;SDS011;63021;52.836;6.376;2022-10-22T07:17:57;17.35;;;7.03;;
55455;SDS011;63021;52.836;6.376;2022-10-22T07:20:23;20.52;;;7.82;;
55455;SDS011;63021;52.836;6.376;2022-10-22T07:22:48;14.55;;;7.65;;
55455;SDS011;63021;52.836;6.376;2022-10-22T07:25:13;15.45;;;8.13;;
55455;SDS011;63021;52.836;6.376;2022-10-22T07:27:39;16.73;;;8.00;;
55455;SDS011;63021;52.836;6.376;2022-10-22T07:30:04;14.07;;;6.47;;
55455;SDS011;63021;52.836;6.376;2022-10-22T07:32:30;15.77;;;7.22;;
55455;SDS011;63021;52.836;6.376;2022-10-22T07:34:56;15.60;;;6.82;;
55455;SDS011;63021;52.836;6.376;2022-10-22T07:37:21;14.00;;;7.18;;
55455;SDS011;63021;52.836;6.376;2022-10-22T07:39:47;14.57;;;6.65;;
55455;SDS011;63021;52.836;6.376;2022-10-22T07:42:13;13.68;;;6.97;;
55455;SDS011;63021;52.836;6.376;2022-10-22T07:44:38;13.77;;;6.93;;
55455;SDS011;63021;52.836;6.376;2022-10-22T07:47:04;17.30;;;7.18;;
55455;SDS011;63021;52.836;6.376;2022-10-22T07:49:29;13.48;;;7.15;;
55455;SDS011;63021;52.836;6.376;2022-10-22T07:51:55;12.70;;;5.80;;
55455;SDS011;63021;52.836;6.376;2022-10-22T07:54:21;13.18;;;7.32;;
55455;SDS011;63021;52.836;6.376;2022-10-22T07:56:47;11.30;;;6.25;;
55455;SDS011;63021;52.836;6.376;2022-10-22T07:59:12;12.55;;;6.25;;
55455;SDS011;63021;52.836;6.376;2022-10-22T08:01:37;12.82;;;6.53;;
55455;SDS011;63021;52.836;6.376;2022-10-22T08:04:03;13.45;;;5.65;;
55455;SDS011;63021;52.836;6.376;2022-10-22T08:06:28;13.13;;;6.00;;
55455;SDS011;63021;52.836;6.376;2022-10-22T08:08:53;20.88;;;5.72;;
55455;SDS011;63021;52.836;6.376;2022-10-22T08:11:19;11.68;;;5.90;;
55455;SDS011;63021;52.836;6.376;2022-10-22T08:13:44;13.75;;;5.72;;
55455;SDS011;63021;52.836;6.376;2022-10-22T08:16:10;14.32;;;5.88;;
55455;SDS011;63021;52.836;6.376;2022-10-22T08:18:35;11.95;;;5.80;;
55455;SDS011;63021;52.836;6.376;2022-10-22T08:21:02;13.35;;;5.38;;
55455;SDS011;63021;52.836;6.376;2022-10-22T08:23:28;13.50;;;5.40;;
55455;SDS011;63021;52.836;6.376;2022-10-22T08:25:53;12.75;;;4.95;;
55455;SDS011;63021;52.836;6.376;2022-10-22T08:28:19;10.82;;;4.97;;
55455;SDS011;63021;52.836;6.376;2022-10-22T08:30:44;8.52;;;4.15;;
55455;SDS011;63021;52.836;6.376;2022-10-22T08:33:12;17.52;;;4.95;;
55455;SDS011;63021;52.836;6.376;2022-10-22T08:35:37;9.75;;;5.28;;
55455;SDS011;63021;52.836;6.376;2022-10-22T08:38:02;10.13;;;4.57;;
55455;SDS011;63021;52.836;6.376;2022-10-22T08:40:32;8.50;;;4.35;;
55455;SDS011;63021;52.836;6.376;2022-10-22T08:43:04;8.75;;;4.70;;
55455;SDS011;63021;52.836;6.376;2022-10-22T08:45:57;16.70;;;4.78;;
55455;SDS011;63021;52.836;6.376;2022-10-22T08:51:20;12.90;;;4.80;;
55455;SDS011;63021;52.836;6.376;2022-10-22T08:59:05;11.90;;;5.55;;
55455;SDS011;63021;52.836;6.376;2022-10-22T09:01:39;13.77;;;5.07;;
55455;SDS011;63021;52.836;6.376;2022-10-22T09:06:39;14.98;;;4.70;;
55455;SDS011;63021;52.836;6.376;2022-10-22T09:09:10;20.20;;;5.78;;
55455;SDS011;63021;52.836;6.376;2022-10-22T09:11:39;13.25;;;4.47;;
55455;SDS011;63021;52.836;6.376;2022-10-22T09:14:08;13.40;;;4.75;;
55455;SDS011;63021;52.836;6.376;2022-10-22T09:22:19;14.68;;;5.43;;
55455;SDS011;63021;52.836;6.376;2022-10-22T09:24:55;11.73;;;4.25;;
55455;SDS011;63021;52.836;6.376;2022-10-22T09:27:35;10.88;;;4.25;;
55455;SDS011;63021;52.836;6.376;2022-10-22T09:30:00;15.82;;;4.22;;
55455;SDS011;63021;52.836;6.376;2022-10-22T09:32:28;13.25;;;6.43;;
55455;SDS011;63021;52.836;6.376;2022-10-22T09:34:54;10.27;;;5.20;;
55455;SDS011;63021;52.836;6.376;2022-10-22T09:37:24;13.98;;;4.50;;
55455;SDS011;63021;52.836;6.376;2022-10-22T09:39:51;15.45;;;4.68;;
55455;SDS011;63021;52.836;6.376;2022-10-22T09:42:18;12.30;;;4.28;;
55455;SDS011;63021;52.836;6.376;2022-10-22T09:44:50;9.85;;;3.97;;
55455;SDS011;63021;52.836;6.376;2022-10-22T09:47:37;14.95;;;4.60;;
55455;SDS011;63021;52.836;6.376;2022-10-22T09:50:20;16.52;;;5.00;;
55455;SDS011;63021;52.836;6.376;2022-10-22T09:53:00;11.98;;;4.90;;
55455;SDS011;63021;52.836;6.376;2022-10-22T09:55:29;14.60;;;4.72;;
55455;SDS011;63021;52.836;6.376;2022-10-22T09:57:56;20.25;;;4.45;;
55455;SDS011;63021;52.836;6.376;2022-10-22T10:00:24;12.52;;;4.60;;
55455;SDS011;63021;52.836;6.376;2022-10-22T10:02:53;12.55;;;5.22;;
55455;SDS011;63021;52.836;6.376;2022-10-22T10:05:41;19.50;;;5.13;;
55455;SDS011;63021;52.836;6.376;2022-10-22T10:08:11;10.18;;;5.07;;
55455;SDS011;63021;52.836;6.376;2022-10-22T10:13:16;14.57;;;5.20;;
55455;SDS011;63021;52.836;6.376;2022-10-22T10:16:14;15.57;;;5.50;;
55455;SDS011;63021;52.836;6.376;2022-10-22T10:24:52;8.77;;;4.03;;
55455;SDS011;63021;52.836;6.376;2022-10-22T10:27:36;11.10;;;4.75;;
55455;SDS011;63021;52.836;6.376;2022-10-22T10:30:08;18.90;;;5.35;;
55455;SDS011;63021;52.836;6.376;2022-10-22T10:35:52;12.55;;;5.18;;
55455;SDS011;63021;52.836;6.376;2022-10-22T10:44:09;11.35;;;5.18;;
55455;SDS011;63021;52.836;6.376;2022-10-22T10:47:07;10.60;;;5.13;;
55455;SDS011;63021;52.836;6.376;2022-10-22T10:49:42;10.98;;;5.20;;
55455;SDS011;63021;52.836;6.376;2022-10-22T10:54:43;13.48;;;5.22;;
55455;SDS011;63021;52.836;6.376;2022-10-22T11:00:10;15.45;;;5.38;;
55455;SDS011;63021;52.836;6.376;2022-10-22T11:05:37;14.48;;;7.50;;
55455;SDS011;63021;52.836;6.376;2022-10-22T11:08:11;12.45;;;5.68;;
55455;SDS011;63021;52.836;6.376;2022-10-22T11:13:48;17.77;;;7.15;;
55455;SDS011;63021;52.836;6.376;2022-10-22T11:19:02;14.90;;;6.22;;
55455;SDS011;63021;52.836;6.376;2022-10-22T11:21:38;11.82;;;6.32;;
55455;SDS011;63021;52.836;6.376;2022-10-22T11:24:12;14.48;;;5.57;;
55455;SDS011;63021;52.836;6.376;2022-10-22T11:26:47;13.45;;;4.78;;
55455;SDS011;63021;52.836;6.376;2022-10-22T11:29:21;14.07;;;5.40;;
55455;SDS011;63021;52.836;6.376;2022-10-22T11:31:50;12.02;;;5.72;;
55455;SDS011;63021;52.836;6.376;2022-10-22T11:34:24;16.77;;;6.22;;
55455;SDS011;63021;52.836;6.376;2022-10-22T11:36:55;12.70;;;4.78;;
55455;SDS011;63021;52.836;6.376;2022-10-22T11:39:25;10.23;;;5.32;;
55455;SDS011;63021;52.836;6.376;2022-10-22T11:41:54;11.02;;;5.20;;
55455;SDS011;63021;52.836;6.376;2022-10-22T11:44:23;19.98;;;6.43;;
55455;SDS011;63021;52.836;6.376;2022-10-22T11:52:26;11.02;;;5.28;;
55455;SDS011;63021;52.836;6.376;2022-10-22T11:55:26;12.52;;;4.65;;
55455;SDS011;63021;52.836;6.376;2022-10-22T11:57:56;12.65;;;5.75;;
55455;SDS011;63021;52.836;6.376;2022-10-22T12:00:32;13.07;;;5.30;;
55455;SDS011;63021;52.836;6.376;2022-10-22T12:03:04;12.35;;;5.55;;
55455;SDS011;63021;52.836;6.376;2022-10-22T12:05:42;16.48;;;5.47;;
55455;SDS011;63021;52.836;6.376;2022-10-22T12:10:56;11.10;;;3.83;;
55455;SDS011;63021;52.836;6.376;2022-10-22T12:13:32;10.23;;;3.88;;
55455;SDS011;63021;52.836;6.376;2022-10-22T12:16:16;7.65;;;3.45;;
55455;SDS011;63021;52.836;6.376;2022-10-22T12:18:42;10.60;;;5.15;;
55455;SDS011;63021;52.836;6.376;2022-10-22T12:21:11;12.60;;;5.47;;
55455;SDS011;63021;52.836;6.376;2022-10-22T12:23:38;12.02;;;5.53;;
55455;SDS011;63021;52.836;6.376;2022-10-22T12:26:04;14.95;;;5.07;;
55455;SDS011;63021;52.836;6.376;2022-10-22T12:28:39;10.90;;;5.55;;
55455;SDS011;63021;52.836;6.376;2022-10-22T12:31:05;14.38;;;5.18;;
55455;SDS011;63021;52.836;6.376;2022-10-22T12:33:30;10.57;;;4.80;;
55455;SDS011;63021;52.836;6.376;2022-10-22T12:35:56;16.08;;;5.60;;
55455;SDS011;63021;52.836;6.376;2022-10-22T12:38:24;13.25;;;4.65;;
55455;SDS011;63021;52.836;6.376;2022-10-22T12:40:50;8.40;;;4.88;;
55455;SDS011;63021;52.836;6.376;2022-10-22T12:43:23;8.85;;;5.82;;
55455;SDS011;63021;52.836;6.376;2022-10-22T12:45:50;10.93;;;4.93;;
55455;SDS011;63021;52.836;6.376;2022-10-22T12:48:21;13.65;;;5.55;;
55455;SDS011;63021;52.836;6.376;2022-10-22T12:50:56;9.52;;;5.18;;
55455;SDS011;63021;52.836;6.376;2022-10-22T12:53:25;12.15;;;5.65;;
55455;SDS011;63021;52.836;6.376;2022-10-22T12:55:53;11.95;;;4.63;;
55455;SDS011;63021;52.836;6.376;2022-10-22T12:58:27;9.35;;;5.25;;
55455;SDS011;63021;52.836;6.376;2022-10-22T13:00:58;8.73;;;3.60;;
55455;SDS011;63021;52.836;6.376;2022-10-22T13:03:29;5.82;;;3.33;;
55455;SDS011;63021;52.836;6.376;2022-10-22T13:06:10;7.75;;;3.50;;
55455;SDS011;63021;52.836;6.376;2022-10-22T13:08:42;11.45;;;3.55;;
55455;SDS011;63021;52.836;6.376;2022-10-22T13:11:08;8.15;;;3.05;;
55455;SDS011;63021;52.836;6.376;2022-10-22T13:16:20;10.57;;;2.67;;
55455;SDS011;63021;52.836;6.376;2022-10-22T13:18:51;8.30;;;2.20;;
55455;SDS011;63021;52.836;6.376;2022-10-22T13:21:35;6.95;;;2.60;;
55455;SDS011;63021;52.836;6.376;2022-10-22T13:24:03;7.57;;;2.45;;
55455;SDS011;63021;52.836;6.376;2022-10-22T13:26:47;10.20;;;3.17;;
55455;SDS011;63021;52.836;6.376;2022-10-22T13:29:14;6.28;;;2.40;;
55455;SDS011;63021;52.836;6.376;2022-10-22T13:31:47;5.43;;;2.67;;
55455;SDS011;63021;52.836;6.376;2022-10-22T13:34:16;8.65;;;2.63;;
55455;SDS011;63021;52.836;6.376;2022-10-22T13:36:43;8.98;;;2.80;;
55455;SDS011;63021;52.836;6.376;2022-10-22T13:39:27;6.18;;;2.50;;
55455;SDS011;63021;52.836;6.376;2022-10-22T13:41:52;7.93;;;2.75;;
55455;SDS011;63021;52.836;6.376;2022-10-22T13:44:18;9.02;;;1.92;;
55455;SDS011;63021;52.836;6.376;2022-10-22T13:46:44;5.57;;;1.80;;
55455;SDS011;63021;52.836;6.376;2022-10-22T13:49:17;6.85;;;1.75;;
55455;SDS011;63021;52.836;6.376;2022-10-22T13:54:12;5.57;;;1.67;;
55455;SDS011;63021;52.836;6.376;2022-10-22T13:56:41;6.50;;;1.60;;
55455;SDS011;63021;52.836;6.376;2022-10-22T13:59:07;7.35;;;1.48;;
55455;SDS011;63021;52.836;6.376;2022-10-22T14:01:33;8.68;;;1.70;;
55455;SDS011;63021;52.836;6.376;2022-10-22T14:04:00;6.05;;;1.83;;
55455;SDS011;63021;52.836;6.376;2022-10-22T14:06:29;5.55;;;1.92;;
55455;SDS011;63021;52.836;6.376;2022-10-22T14:08:59;8.75;;;2.38;;
55455;SDS011;63021;52.836;6.376;2022-10-22T14:11:27;8.82;;;2.25;;
55455;SDS011;63021;52.836;6.376;2022-10-22T14:13:54;10.55;;;3.10;;
55455;SDS011;63021;52.836;6.376;2022-10-22T14:16:21;7.30;;;2.50;;
55455;SDS011;63021;52.836;6.376;2022-10-22T14:18:48;12.90;;;3.33;;
55455;SDS011;63021;52.836;6.376;2022-10-22T14:21:14;10.60;;;1.92;;
55455;SDS011;63021;52.836;6.376;2022-10-22T14:23:41;6.75;;;2.20;;
55455;SDS011;63021;52.836;6.376;2022-10-22T14:26:08;5.50;;;1.63;;
55455;SDS011;63021;52.836;6.376;2022-10-22T14:28:45;11.05;;;1.80;;
55455;SDS011;63021;52.836;6.376;2022-10-22T14:31:10;12.93;;;1.95;;
55455;SDS011;63021;52.836;6.376;2022-10-22T14:33:35;10.23;;;2.40;;
55455;SDS011;63021;52.836;6.376;2022-10-22T14:36:01;8.98;;;1.52;;
55455;SDS011;63021;52.836;6.376;2022-10-22T14:38:26;12.43;;;2.65;;
55455;SDS011;63021;52.836;6.376;2022-10-22T14:40:52;14.75;;;2.70;;
55455;SDS011;63021;52.836;6.376;2022-10-22T14:43:22;11.88;;;3.40;;
55455;SDS011;63021;52.836;6.376;2022-10-22T14:45:50;18.95;;;3.13;;
55455;SDS011;63021;52.836;6.376;2022-10-22T14:48:16;17.30;;;3.35;;
55455;SDS011;63021;52.836;6.376;2022-10-22T14:50:42;16.10;;;3.70;;
55455;SDS011;63021;52.836;6.376;2022-10-22T14:53:09;13.10;;;2.08;;
55455;SDS011;63021;52.836;6.376;2022-10-22T14:55:35;16.15;;;2.85;;
55455;SDS011;63021;52.836;6.376;2022-10-22T14:58:00;13.18;;;2.80;;
55455;SDS011;63021;52.836;6.376;2022-10-22T15:00:26;14.73;;;3.65;;
55455;SDS011;63021;52.836;6.376;2022-10-22T15:02:51;12.38;;;2.67;;
55455;SDS011;63021;52.836;6.376;2022-10-22T15:05:16;13.20;;;3.30;;
55455;SDS011;63021;52.836;6.376;2022-10-22T15:07:43;13.68;;;3.65;;
55455;SDS011;63021;52.836;6.376;2022-10-22T15:10:09;18.48;;;3.47;;
55455;SDS011;63021;52.836;6.376;2022-10-22T15:12:35;15.93;;;4.47;;
55455;SDS011;63021;52.836;6.376;2022-10-22T15:15:00;16.75;;;3.38;;
55455;SDS011;63021;52.836;6.376;2022-10-22T15:17:25;9.40;;;2.70;;
55455;SDS011;63021;52.836;6.376;2022-10-22T15:19:52;17.65;;;3.45;;
55455;SDS011;63021;52.836;6.376;2022-10-22T15:22:17;17.83;;;4.53;;
55455;SDS011;63021;52.836;6.376;2022-10-22T15:24:43;9.85;;;2.88;;
55455;SDS011;63021;52.836;6.376;2022-10-22T15:27:12;11.07;;;2.88;;
55455;SDS011;63021;52.836;6.376;2022-10-22T15:29:38;16.73;;;3.20;;
55455;SDS011;63021;52.836;6.376;2022-10-22T15:32:05;10.75;;;2.78;;
55455;SDS011;63021;52.836;6.376;2022-10-22T15:34:33;16.23;;;4.10;;
55455;SDS011;63021;52.836;6.376;2022-10-22T15:37:01;13.45;;;2.80;;
55455;SDS011;63021;52.836;6.376;2022-10-22T15:39:28;13.63;;;3.20;;
55455;SDS011;63021;52.836;6.376;2022-10-22T15:41:55;6.72;;;2.72;;
55455;SDS011;63021;52.836;6.376;2022-10-22T15:44:22;18.88;;;4.93;;
55455;SDS011;63021;52.836;6.376;2022-10-22T15:46:48;14.90;;;4.78;;
55455;SDS011;63021;52.836;6.376;2022-10-22T15:49:18;13.43;;;3.25;;
55455;SDS011;63021;52.836;6.376;2022-10-22T15:51:44;11.30;;;3.33;;
55455;SDS011;63021;52.836;6.376;2022-10-22T15:54:11;16.10;;;3.78;;
55455;SDS011;63021;52.836;6.376;2022-10-22T15:56:39;12.60;;;4.03;;
55455;SDS011;63021;52.836;6.376;2022-10-22T15:59:05;14.80;;;3.90;;
55455;SDS011;63021;52.836;6.376;2022-10-22T16:01:31;16.35;;;3.67;;
55455;SDS011;63021;52.836;6.376;2022-10-22T16:03:58;13.05;;;4.75;;
55455;SDS011;63021;52.836;6.376;2022-10-22T16:06:26;10.15;;;3.70;;
55455;SDS011;63021;52.836;6.376;2022-10-22T16:09:00;10.25;;;4.38;;
55455;SDS011;63021;52.836;6.376;2022-10-22T16:11:27;20.05;;;4.22;;
55455;SDS011;63021;52.836;6.376;2022-10-22T16:13:56;17.55;;;3.97;;
55455;SDS011;63021;52.836;6.376;2022-10-22T16:16:24;12.60;;;4.32;;